Time;durP1;ratioP1;P1;durP2;ratioP2;P2;SDS_P1;SDS_P2;PMS_P1;PMS_P2;Temp;Humidity;BMP_temperature;BMP_pressure;BME280_temperature;BME280_humidity;BME280_pressure;Samples;Min_cycle;Max_cycle;Signal;HPM_P1;HPM_P2
2021/10/30 13:14:49;;;;;;;16.50;12.60;;;;;;;7.55;83.35;100892.86;1712620;83;21635;-70
2021/10/30 13:17:17;;;;;;;17.17;12.82;;;;;;;7.46;83.50;100888.80;1732269;79;21047;-73
2021/10/30 13:19:44;;;;;;;19.10;14.38;;;;;;;7.39;83.80;100890.73;1718580;80;21059;-70
2021/10/30 13:22:10;;;;;;;17.87;13.85;;;;;;;7.38;83.90;100886.36;1735834;81;21576;-72
2021/10/30 13:24:41;;;;;;;21.07;14.70;;;;;;;7.34;84.01;100891.40;1741545;81;21023;-72
2021/10/30 13:27:09;;;;;;;17.92;13.98;;;;;;;7.36;84.20;100884.41;1746488;81;21555;-72
2021/10/30 13:29:37;;;;;;;20.10;14.87;;;;;;;7.33;84.35;100882.95;1743127;81;21461;-72
2021/10/30 13:32:05;;;;;;;18.37;13.28;;;;;;;7.33;84.48;100885.66;1747719;81;21105;-72
2021/10/30 13:34:32;;;;;;;17.15;12.95;;;;;;;7.33;84.60;100878.89;1749137;81;21035;-71
2021/10/30 13:36:59;;;;;;;;;;;;;;;7.35;84.69;100876.81;1747897;81;21074;-72
2021/10/30 13:39:26;;;;;;;20.52;13.75;;;;;;;7.36;84.85;100875.77;1740371;82;20146;-73
2021/10/30 13:41:52;;;;;;;18.75;13.85;;;;;;;7.31;85.11;100876.11;1739916;81;21122;-71
2021/10/30 13:44:18;;;;;;;20.88;13.48;;;;;;;7.37;85.09;100882.81;1752263;81;21030;-70
2021/10/30 13:46:46;;;;;;;18.50;13.65;;;;;;;7.45;84.99;100882.54;1742079;81;21130;-70
2021/10/30 13:49:12;;;;;;;27.30;18.37;;;;;;;7.46;84.84;100876.60;1750908;82;21009;-71
2021/10/30 13:51:39;;;;;;;18.27;13.35;;;;;;;7.37;84.66;100882.81;1744368;81;21051;-73
2021/10/30 13:54:05;;;;;;;26.60;16.42;;;;;;;7.28;84.64;100880.63;1691297;82;21039;-72
2021/10/30 13:56:32;;;;;;;;;;;;;;;7.26;84.57;100885.45;1743123;81;21082;-73
2021/10/30 13:58:58;;;;;;;19.87;14.75;;;;;;;7.20;84.59;100882.25;1744482;81;20121;-74
2021/10/30 14:01:25;;;;;;;17.52;13.15;;;;;;;7.09;84.79;100884.33;1744362;81;21695;-73
2021/10/30 14:03:52;;;;;;;19.67;14.60;;;;;;;7.11;84.78;100887.66;1747231;81;21029;-73
2021/10/30 14:06:19;;;;;;;27.15;18.80;;;;;;;7.08;84.69;100882.69;1747479;81;21059;-72
2021/10/30 14:08:45;;;;;;;29.00;19.52;;;;;;;7.07;84.76;100878.31;1744896;81;21007;-72
2021/10/30 14:11:12;;;;;;;21.05;16.52;;;;;;;7.09;84.83;100882.45;1745577;81;21160;-72
2021/10/30 14:13:39;;;;;;;33.20;23.15;;;;;;;7.13;84.83;100883.67;1746969;81;21552;-72
2021/10/30 14:16:06;;;;;;;;;;;;;;;7.17;84.84;100880.00;1749078;81;21188;-72
2021/10/30 14:18:33;;;;;;;28.75;20.00;;;;;;;7.16;84.87;100868.84;1745670;81;20143;-72
2021/10/30 14:21:05;;;;;;;19.95;14.65;;;;;;;7.08;85.16;100876.75;1744536;82;21540;-73
2021/10/30 14:23:35;;;;;;;20.65;14.98;;;;;;;7.11;85.17;100874.13;1744177;81;21101;-73
2021/10/30 14:26:02;;;;;;;18.25;14.60;;;;;;;7.13;85.06;100871.48;1745707;81;21164;-72
2021/10/30 14:28:29;;;;;;;19.80;14.13;;;;;;;7.16;85.02;100868.33;1749345;81;20999;-72
2021/10/30 14:30:55;;;;;;;;;;;;;;;7.18;85.01;100864.06;1743409;81;21109;-73
2021/10/30 14:33:21;;;;;;;22.87;16.12;;;;;;;7.21;84.99;100860.37;1739738;81;20432;-72
2021/10/30 14:35:48;;;;;;;25.17;18.37;;;;;;;7.11;85.21;100866.83;1742311;81;21019;-72
2021/10/30 14:38:15;;;;;;;23.92;17.55;;;;;;;7.12;85.33;100862.25;1746182;81;21485;-72
2021/10/30 14:40:43;;;;;;;;;;;;;;;7.19;85.25;100864.37;1741170;82;21122;-72
2021/10/30 14:43:11;;;;;;;22.62;16.70;;;;;;;7.24;85.13;100861.80;1740166;81;20114;-72
2021/10/30 14:45:38;;;;;;;22.80;16.23;;;;;;;7.18;85.19;100869.47;1737933;82;21923;-72
2021/10/30 14:48:04;;;;;;;23.10;16.97;;;;;;;7.19;85.26;100870.59;1735988;82;21547;-72
2021/10/30 14:50:31;;;;;;;23.80;16.97;;;;;;;7.23;85.20;100864.20;1748404;82;21521;-72
2021/10/30 14:52:57;;;;;;;21.68;15.70;;;;;;;7.26;85.12;100869.20;1737967;82;21135;-72
2021/10/30 14:55:24;;;;;;;25.27;17.25;;;;;;;7.30;85.06;100867.16;1721097;82;21003;-72
2021/10/30 14:57:51;;;;;;;23.38;17.65;;;;;;;7.34;84.96;100863.47;1736401;82;21702;-72
2021/10/30 15:00:20;;;;;;;22.80;17.70;;;;;;;7.34;84.94;100864.31;1738561;82;21167;-72
2021/10/30 15:02:46;;;;;;;23.92;16.80;;;;;;;7.31;84.94;100867.47;1743225;82;21113;-72
2021/10/30 15:05:13;;;;;;;24.35;16.27;;;;;;;7.33;84.88;100870.77;1741969;82;21019;-72
2021/10/30 15:07:39;;;;;;;22.13;16.52;;;;;;;7.36;84.82;100868.16;1740624;82;21070;-72
2021/10/30 15:10:07;;;;;;;24.18;17.27;;;;;;;7.35;84.76;100874.10;1739953;82;21046;-73
2021/10/30 15:12:34;;;;;;;27.58;19.70;;;;;;;7.37;84.80;100865.21;1739624;82;21078;-72
2021/10/30 15:15:00;;;;;;;26.05;19.15;;;;;;;7.39;84.79;100877.19;1743419;82;21059;-74
2021/10/30 15:17:27;;;;;;;28.50;20.32;;;;;;;7.44;84.78;100869.20;1743885;82;21066;-72
2021/10/30 15:19:54;;;;;;;33.15;22.42;;;;;;;7.44;84.82;100867.84;1744079;82;21030;-72
2021/10/30 15:22:22;;;;;;;28.80;20.80;;;;;;;7.46;84.87;100869.30;1743687;82;21154;-72
2021/10/30 15:24:49;;;;;;;30.50;22.15;;;;;;;7.50;84.69;100867.81;1741560;82;21102;-72
2021/10/30 15:27:16;;;;;;;30.88;21.48;;;;;;;7.54;84.58;100864.65;1742478;82;21059;-73
2021/10/30 15:29:43;;;;;;;27.93;19.70;;;;;;;7.56;84.50;100863.36;1737334;82;21090;-73
2021/10/30 15:32:10;;;;;;;26.17;19.52;;;;;;;7.59;84.41;100871.03;1741346;82;21773;-72
2021/10/30 15:34:37;;;;;;;26.62;19.48;;;;;;;7.62;84.39;100869.23;1745357;82;21038;-72
2021/10/30 15:37:04;;;;;;;28.32;21.45;;;;;;;7.61;84.33;100870.30;1737717;82;21729;-73
2021/10/30 15:39:31;;;;;;;27.17;20.50;;;;;;;7.56;84.43;100869.30;1739876;82;21608;-73
2021/10/30 15:41:58;;;;;;;31.93;22.30;;;;;;;7.56;84.45;100865.23;1736009;82;21059;-72
2021/10/30 15:44:25;;;;;;;28.23;20.70;;;;;;;7.60;84.39;100871.34;1749540;82;21485;-72
2021/10/30 15:46:53;;;;;;;29.10;20.92;;;;;;;7.65;84.30;100867.42;1743484;82;21155;-73
2021/10/30 15:49:19;;;;;;;28.83;20.25;;;;;;;7.67;84.23;100868.56;1746586;82;21656;-72
2021/10/30 15:51:46;;;;;;;29.55;22.30;;;;;;;7.71;84.17;100871.13;1739578;82;21110;-72
2021/10/30 15:54:12;;;;;;;27.95;20.15;;;;;;;7.73;84.11;100869.84;1740101;82;21073;-72
2021/10/30 15:56:40;;;;;;;;;;;;;;;7.76;84.21;100867.22;1740847;82;21126;-72
2021/10/30 15:59:06;;;;;;;35.03;25.08;;;;;;;7.76;84.15;100862.60;1736882;82;20126;-73
2021/10/30 16:01:33;;;;;;;36.88;26.00;;;;;;;7.74;84.10;100867.44;1742003;82;21580;-72
2021/10/30 16:03:59;;;;;;;38.48;27.77;;;;;;;7.77;84.03;100864.27;1745256;82;21011;-73
2021/10/30 16:06:26;;;;;;;32.55;23.22;;;;;;;7.80;83.93;100871.11;1739608;82;21035;-73
2021/10/30 16:08:53;;;;;;;34.92;24.45;;;;;;;7.83;83.85;100862.00;1740117;82;21544;-73
2021/10/30 16:11:19;;;;;;;35.70;24.63;;;;;;;7.78;83.87;100862.39;1745054;82;21050;-73
2021/10/30 16:13:47;;;;;;;32.80;24.32;;;;;;;7.79;83.96;100866.77;1745561;82;21616;-73
2021/10/30 16:16:14;;;;;;;32.00;23.32;;;;;;;7.82;83.86;100869.02;1731229;82;21079;-72
2021/10/30 16:18:40;;;;;;;30.40;21.07;;;;;;;7.86;83.73;100872.94;1744301;82;21611;-72
2021/10/30 16:21:11;;;;;;;33.25;23.73;;;;;;;7.89;83.64;100873.31;1739890;82;21007;-72
2021/10/30 16:23:36;;;;;;;32.30;23.83;;;;;;;7.90;83.59;100885.80;1736969;82;21075;-73
2021/10/30 16:26:03;;;;;;;33.78;23.77;;;;;;;7.95;83.57;100888.67;1741399;82;21062;-73
2021/10/30 16:28:30;;;;;;;32.40;23.40;;;;;;;7.98;83.55;100892.80;1745465;82;21557;-73
2021/10/30 16:30:56;;;;;;;31.60;23.65;;;;;;;7.97;83.53;100883.83;1742855;82;21019;-73
2021/10/30 16:33:23;;;;;;;32.95;23.38;;;;;;;7.97;83.38;100887.91;1736595;82;21549;-73
2021/10/30 16:35:50;;;;;;;33.60;23.45;;;;;;;8.01;83.31;100892.34;1740811;82;21010;-73
2021/10/30 16:38:16;;;;;;;34.23;24.37;;;;;;;8.03;83.24;100892.96;1748833;82;21022;-73
2021/10/30 16:40:42;;;;;;;33.10;24.90;;;;;;;8.03;83.20;100898.39;1737483;82;20991;-73
2021/10/30 16:43:09;;;;;;;;;;;;;;;8.03;83.16;100892.13;1744988;82;21596;-73
2021/10/30 16:45:36;;;;;;;38.20;26.70;;;;;;;7.94;83.24;100891.59;1740102;82;20144;-73
2021/10/30 16:48:04;;;;;;;48.42;33.42;;;;;;;7.87;83.36;100885.42;1744610;82;21484;-73
2021/10/30 16:50:31;;;;;;;56.08;39.58;;;;;;;7.92;83.35;100889.13;1725352;82;21584;-73
2021/10/30 16:52:58;;;;;;;37.20;26.90;;;;;;;7.99;83.22;100893.11;1736819;82;21078;-73
2021/10/30 16:55:24;;;;;;;42.70;30.15;;;;;;;7.97;83.10;100893.33;1740433;82;21655;-73
2021/10/30 16:57:51;;;;;;;38.70;27.30;;;;;;;7.96;83.08;100889.50;1742717;82;21114;-73
2021/10/30 17:00:17;;;;;;;34.70;25.77;;;;;;;7.96;82.98;100893.05;1746072;82;21004;-73
2021/10/30 17:02:43;;;;;;;;;;;;;;;7.93;82.90;100893.50;1743814;82;21667;-73
2021/10/30 17:05:10;;;;;;;32.03;23.00;;;;;;;7.96;82.88;100888.98;1742833;82;20130;-72
2021/10/30 17:07:36;;;;;;;32.00;23.30;;;;;;;7.94;82.94;100892.95;1740891;82;21090;-73
2021/10/30 17:10:03;;;;;;;32.93;23.52;;;;;;;7.93;82.91;100886.72;1741757;82;21554;-73
2021/10/30 17:12:30;;;;;;;36.45;25.72;;;;;;;7.85;83.03;100887.02;1741913;82;21050;-73
2021/10/30 17:14:57;;;;;;;34.75;24.02;;;;;;;7.86;83.07;100885.97;1736217;82;21023;-74
2021/10/30 17:17:23;;;;;;;33.48;23.98;;;;;;;7.93;82.98;100885.89;1737929;82;21678;-73
2021/10/30 17:19:50;;;;;;;35.70;25.25;;;;;;;7.95;82.86;100878.34;1740428;82;20976;-73
2021/10/30 17:22:16;;;;;;;32.42;24.05;;;;;;;7.93;82.82;100881.83;1736906;82;21055;-73
2021/10/30 17:24:43;;;;;;;34.05;25.17;;;;;;;7.93;82.82;100881.30;1736855;82;21004;-73
2021/10/30 17:27:15;;;;;;;35.78;24.92;;;;;;;7.94;82.80;100880.75;1741492;82;22087;-73
2021/10/30 17:29:38;;;;;;;39.13;26.52;;;;;;;7.95;82.77;100885.13;1738956;82;21007;-73
2021/10/30 17:32:05;;;;;;;38.95;28.02;;;;;;;7.91;82.82;100883.39;1738701;82;21047;-73
2021/10/30 17:34:36;;;;;;;34.30;25.27;;;;;;;7.92;82.84;100876.92;1739031;82;21043;-73
2021/10/30 17:37:00;;;;;;;37.75;25.75;;;;;;;7.94;82.73;100876.68;1743609;82;21153;-73
2021/10/30 17:39:26;;;;;;;37.05;26.27;;;;;;;7.93;82.61;100874.52;1747693;82;21014;-73
2021/10/30 17:41:53;;;;;;;35.10;24.90;;;;;;;7.94;82.56;100872.61;1741225;81;21066;-74
2021/10/30 17:44:19;;;;;;;36.90;26.75;;;;;;;7.94;82.49;100869.38;1712594;82;20999;-74
2021/10/30 17:46:47;;;;;;;37.05;27.25;;;;;;;7.96;82.43;100871.35;1718787;82;21073;-73
2021/10/30 17:49:14;;;;;;;38.78;27.52;;;;;;;7.88;82.45;100866.23;1684135;84;21019;-73
2021/10/30 17:51:40;;;;;;;35.78;25.92;;;;;;;7.88;82.41;100866.23;1746814;82;21443;-74
2021/10/30 17:54:07;;;;;;;37.45;26.42;;;;;;;7.93;82.36;100865.03;1750832;82;21604;-73
2021/10/30 17:56:33;;;;;;;34.88;26.23;;;;;;;7.93;82.19;100869.10;1737901;82;21072;-73
2021/10/30 17:58:59;;;;;;;39.42;28.02;;;;;;;7.88;82.06;100864.04;1731889;81;21655;-73
2021/10/30 18:01:26;;;;;;;37.05;27.07;;;;;;;7.77;82.12;100865.62;1717442;82;21090;-71
2021/10/30 18:03:52;;;;;;;37.15;26.07;;;;;;;7.69;82.20;100863.73;1722502;82;21047;-72
2021/10/30 18:06:19;;;;;;;;;;;;;;;7.66;82.17;100857.41;1729876;81;21562;-74
2021/10/30 18:08:45;;;;;;;39.65;28.32;;;;;;;7.65;82.06;100862.00;1728837;81;20118;-68
2021/10/30 18:11:11;;;;;;;;;;;;;;;7.55;82.11;100862.22;1742143;81;21066;-70
2021/10/30 18:13:39;;;;;;;;;;;;;;;7.41;82.27;100863.72;1741654;81;20438;-70
2021/10/30 18:16:06;;;;;;;45.70;31.10;;;;;;;7.32;82.49;100863.72;1714565;82;20101;-69
2021/10/30 18:18:33;;;;;;;46.00;30.75;;;;;;;7.29;82.66;100870.94;1725908;81;21039;-70
2021/10/30 18:21:00;;;;;;;42.13;28.35;;;;;;;7.31;82.66;100869.34;1741044;81;20994;-70
2021/10/30 18:23:28;;;;;;;40.55;29.72;;;;;;;7.28;82.59;100876.05;1738506;82;21110;-70
2021/10/30 18:25:54;;;;;;;37.48;27.52;;;;;;;7.20;82.69;100871.42;1710089;82;21507;-71
2021/10/30 18:28:21;;;;;;;42.25;30.27;;;;;;;7.19;82.86;100873.84;1730023;81;21102;-70
2021/10/30 18:30:48;;;;;;;40.95;29.40;;;;;;;7.19;82.95;100878.72;1714289;81;21101;-70
2021/10/30 18:33:14;;;;;;;;;;;;;;;7.21;83.00;100874.44;1682905;84;21074;-70
2021/10/30 18:35:41;;;;;;;42.83;28.80;;;;;;;7.24;83.10;100878.89;1644240;86;20206;-71
2021/10/30 18:38:08;;;;;;;39.98;27.85;;;;;;;7.22;83.19;100880.17;1714816;83;21067;-70
2021/10/30 18:40:36;;;;;;;41.70;28.52;;;;;;;7.18;83.36;100883.84;1733013;82;21026;-70
2021/10/30 18:43:04;;;;;;;40.48;28.42;;;;;;;7.19;83.54;100889.55;1740538;82;21126;-71
2021/10/30 18:45:32;;;;;;;39.33;27.75;;;;;;;7.19;83.68;100886.84;1747466;81;21596;-71
2021/10/30 18:47:58;;;;;;;41.68;28.38;;;;;;;7.26;83.71;100886.80;1743768;81;21613;-71
2021/10/30 18:50:26;;;;;;;38.05;26.17;;;;;;;7.28;83.72;100884.17;1730499;81;21136;-71
2021/10/30 18:52:52;;;;;;;40.80;27.60;;;;;;;7.27;83.77;100889.27;1733954;81;21101;-70
2021/10/30 18:55:19;;;;;;;37.75;25.02;;;;;;;7.28;83.79;100888.23;1692616;84;21521;-70
2021/10/30 18:57:45;;;;;;;39.30;27.40;;;;;;;7.28;83.84;100892.30;1724206;82;21011;-71
2021/10/30 19:00:12;;;;;;;;;;;;;;;7.27;83.90;100879.80;1731212;82;21600;-71
2021/10/30 19:02:40;;;;;;;;;;;;;;;7.27;83.95;100877.09;1715804;82;20099;-72
2021/10/30 19:05:08;;;;;;;39.50;26.48;;;;;;;7.25;84.08;100885.97;1735176;81;20151;-72
2021/10/30 19:07:40;;;;;;;36.13;24.90;;;;;;;7.25;84.23;100886.49;1714517;80;21103;-72
2021/10/30 19:10:13;;;;;;;44.08;28.30;;;;;;;7.28;84.25;100880.63;1727923;80;21012;-72
2021/10/30 19:12:40;;;;;;;36.05;25.48;;;;;;;7.27;84.24;100870.31;1710683;82;21047;-70
2021/10/30 19:15:09;;;;;;;36.95;25.77;;;;;;;7.35;84.13;100876.81;1732378;82;21039;-71
2021/10/30 19:17:35;;;;;;;37.50;25.55;;;;;;;7.40;84.02;100876.15;1725788;81;21051;-71
2021/10/30 19:20:02;;;;;;;36.65;26.40;;;;;;;7.41;83.92;100880.49;1686311;84;21503;-71
2021/10/30 19:22:29;;;;;;;41.42;28.42;;;;;;;7.46;83.87;100884.73;1667999;84;21629;-72
2021/10/30 19:24:56;;;;;;;41.77;29.10;;;;;;;7.46;83.87;100873.89;1723781;82;21016;-72
2021/10/30 19:27:26;;;;;;;;;;;;;;;7.45;83.92;100873.58;1739709;82;21070;-71
2021/10/30 19:29:54;;;;;;;39.63;28.25;;;;;;;7.47;83.84;100872.84;1748677;82;20422;-72
2021/10/30 19:32:21;;;;;;;40.08;28.38;;;;;;;7.46;83.84;100872.02;1719010;81;21379;-71
2021/10/30 19:34:47;;;;;;;41.10;27.95;;;;;;;7.42;83.79;100873.51;1708800;83;21075;-71
2021/10/30 19:37:13;;;;;;;39.35;27.67;;;;;;;7.42;83.81;100878.92;1724046;81;21144;-72
2021/10/30 19:39:41;;;;;;;41.18;28.80;;;;;;;7.34;83.88;100871.08;1732703;82;21105;-71
2021/10/30 19:42:07;;;;;;;41.70;28.00;;;;;;;7.33;83.88;100872.13;1706493;82;21379;-71
2021/10/30 19:44:35;;;;;;;41.80;29.57;;;;;;;7.35;83.85;100874.10;1723185;81;21062;-71
2021/10/30 19:47:03;;;;;;;43.30;29.42;;;;;;;7.35;83.79;100870.04;1733096;81;21107;-71
2021/10/30 19:49:32;;;;;;;41.18;30.43;;;;;;;7.29;83.81;100868.23;1700039;82;21031;-71
2021/10/30 19:52:00;;;;;;;44.13;29.92;;;;;;;7.28;83.87;100864.37;1654296;85;21652;-71
2021/10/30 19:54:26;;;;;;;43.35;29.72;;;;;;;7.26;83.96;100871.36;1695146;84;21039;-71
2021/10/30 19:56:52;;;;;;;;;;;;;;;7.28;84.04;100866.56;1668342;84;21096;-70
2021/10/30 19:59:19;;;;;;;41.23;26.45;;;;;;;7.31;83.93;100872.05;1676355;84;20112;-71
2021/10/30 20:01:45;;;;;;;43.45;28.30;;;;;;;7.27;83.96;100873.55;1723042;82;21536;-71
2021/10/30 20:04:15;;;;;;;40.20;26.62;;;;;;;7.28;83.97;100871.98;1726506;81;21041;-72
2021/10/30 20:06:40;;;;;;;38.98;27.32;;;;;;;7.29;83.90;100871.46;1730310;81;21066;-72
2021/10/30 20:09:08;;;;;;;39.67;26.65;;;;;;;7.29;83.87;100867.40;1726092;80;21030;-72
2021/10/30 20:11:35;;;;;;;50.73;33.08;;;;;;;7.30;83.86;100867.67;1729465;81;21109;-71
2021/10/30 20:14:06;;;;;;;43.45;29.92;;;;;;;7.25;83.88;100867.53;1707056;83;21039;-71
2021/10/30 20:16:29;;;;;;;44.60;29.67;;;;;;;7.19;83.88;100866.53;1704808;82;21139;-71
2021/10/30 20:18:56;;;;;;;;;;;;;;;7.18;83.74;100868.95;1688679;84;21096;-71
2021/10/30 20:21:22;;;;;;;41.02;29.12;;;;;;;7.19;83.65;100867.87;1652510;85;20163;-72
2021/10/30 20:23:48;;;;;;;42.27;29.07;;;;;;;7.17;83.62;100865.09;1682669;83;21086;-71
2021/10/30 20:26:15;;;;;;;41.25;27.90;;;;;;;7.16;83.59;100868.33;1690078;84;21059;-71
2021/10/30 20:28:42;;;;;;;43.83;29.57;;;;;;;7.14;83.58;100866.38;1732521;81;21060;-71
2021/10/30 20:31:08;;;;;;;45.60;30.37;;;;;;;7.06;83.61;100871.23;1746357;82;21003;-72
2021/10/30 20:33:35;;;;;;;44.98;32.45;;;;;;;7.01;83.61;100871.37;1706610;83;21058;-71
2021/10/30 20:36:01;;;;;;;42.53;30.10;;;;;;;7.00;83.43;100871.09;1720629;82;21020;-71
2021/10/30 20:38:27;;;;;;;50.40;32.03;;;;;;;6.99;83.38;100872.13;1722432;83;21037;-71
2021/10/30 20:41:01;;;;;;;;;;;;;;;6.93;83.26;100869.48;1713942;83;21074;-71
2021/10/30 20:43:30;;;;;;;48.52;29.25;;;;;;;6.86;83.36;100871.41;1700516;82;20111;-71
2021/10/30 20:45:57;;;;;;;47.35;31.75;;;;;;;6.68;83.75;100868.63;1735979;81;21022;-71
2021/10/30 20:48:25;;;;;;;47.00;31.97;;;;;;;6.65;83.93;100869.06;1730050;82;21026;-71
2021/10/30 20:50:53;;;;;;;67.47;43.13;;;;;;;6.65;83.88;100864.48;1741425;82;20993;-71
2021/10/30 20:53:20;;;;;;;56.50;37.05;;;;;;;6.64;83.86;100860.63;1729775;82;21567;-72
2021/10/30 20:55:50;;;;;;;44.20;31.60;;;;;;;6.66;83.95;100867.47;1742319;82;20978;-71
2021/10/30 20:58:16;;;;;;;51.48;35.48;;;;;;;6.64;83.87;100863.34;1740282;81;21085;-71
2021/10/30 21:00:44;;;;;;;52.65;34.13;;;;;;;6.54;83.89;100864.34;1745271;82;21508;-71
2021/10/30 21:03:13;;;;;;;48.13;32.40;;;;;;;6.44;84.07;100855.37;1741072;82;21106;-71
2021/10/30 21:05:41;;;;;;;67.85;40.50;;;;;;;6.39;84.10;100860.06;1721004;81;21071;-71
2021/10/30 21:08:09;;;;;;;47.35;33.30;;;;;;;6.33;84.17;100862.30;1738840;81;21046;-71
2021/10/30 21:10:35;;;;;;;56.80;32.15;;;;;;;6.31;84.27;100860.31;1721491;82;21081;-71
2021/10/30 21:13:02;;;;;;;58.63;32.48;;;;;;;6.28;84.37;100859.40;1739415;81;21010;-71
2021/10/30 21:15:29;;;;;;;59.42;32.17;;;;;;;6.30;84.56;100863.25;1742223;81;21038;-71
2021/10/30 21:17:57;;;;;;;55.43;34.27;;;;;;;6.28;84.76;100858.56;1746269;81;21059;-71
2021/10/30 21:20:24;;;;;;;52.98;31.37;;;;;;;6.31;84.92;100859.48;1743879;82;21082;-71
2021/10/30 21:22:52;;;;;;;48.25;30.95;;;;;;;6.36;84.83;100855.09;1749593;81;21050;-71
2021/10/30 21:25:19;;;;;;;46.63;31.97;;;;;;;6.39;84.74;100854.66;1742799;82;21571;-71
2021/10/30 21:27:45;;;;;;;;;;;;;;;6.42;84.66;100859.63;1745722;81;21019;-71
2021/10/30 21:30:16;;;;;;;57.67;34.63;;;;;;;6.43;84.63;100852.34;1713815;82;20105;-71
2021/10/30 21:32:40;;;;;;;95.17;35.33;;;;;;;6.39;84.69;100852.47;1698661;82;21079;-71
2021/10/30 21:35:08;;;;;;;115.42;35.23;;;;;;;6.39;84.83;100856.02;1715957;82;21061;-71
2021/10/30 21:37:35;;;;;;;77.90;32.10;;;;;;;6.36;84.93;100844.80;1718831;82;21541;-71
2021/10/30 21:40:03;;;;;;;60.30;32.45;;;;;;;6.30;84.91;100845.67;1728463;82;21047;-71
2021/10/30 21:42:29;;;;;;;76.97;33.42;;;;;;;6.30;84.80;100852.44;1708418;82;21047;-71
2021/10/30 21:44:56;;;;;;;50.90;31.85;;;;;;;6.32;84.77;100843.57;1702069;83;21050;-71
2021/10/30 21:47:23;;;;;;;43.17;29.75;;;;;;;6.35;84.79;100848.54;1683512;83;21582;-71
2021/10/30 21:49:49;;;;;;;58.02;29.07;;;;;;;6.38;84.79;100844.88;1708053;82;21047;-71
2021/10/30 21:52:15;;;;;;;75.75;28.23;;;;;;;6.36;84.71;100846.16;1727104;81;21066;-71
2021/10/30 21:54:42;;;;;;;57.43;29.65;;;;;;;6.30;84.77;100847.03;1718526;81;21353;-71
2021/10/30 21:57:09;;;;;;;48.80;28.17;;;;;;;6.22;84.69;100844.05;1701685;83;21084;-71
2021/10/30 21:59:36;;;;;;;60.58;29.05;;;;;;;6.17;84.48;100840.32;1728351;81;21026;-71
2021/10/30 22:02:02;;;;;;;54.70;26.57;;;;;;;6.08;84.36;100837.05;1734173;82;21115;-71
2021/10/30 22:04:30;;;;;;;44.20;26.30;;;;;;;6.02;84.39;100843.33;1731397;81;21102;-71
2021/10/30 22:06:56;;;;;;;63.20;31.50;;;;;;;5.94;84.38;100835.46;1730943;80;21059;-71
2021/10/30 22:09:22;;;;;;;55.92;28.02;;;;;;;5.89;84.51;100835.27;1739488;82;21573;-71
2021/10/30 22:11:49;;;;;;;64.37;29.25;;;;;;;5.85;84.62;100832.64;1718117;82;21043;-71
2021/10/30 22:14:17;;;;;;;50.25;27.93;;;;;;;5.75;84.77;100826.87;1736001;82;21031;-71
2021/10/30 22:16:44;;;;;;;40.88;26.70;;;;;;;5.67;84.86;100835.23;1735697;81;21146;-71
2021/10/30 22:19:11;;;;;;;;;;;;;;;5.66;84.86;100836.27;1727909;81;21776;-71
2021/10/30 22:21:40;;;;;;;75.72;29.42;;;;;;;5.63;84.88;100828.59;1719475;82;20139;-70
2021/10/30 22:24:07;;;;;;;35.20;24.70;;;;;;;5.53;84.98;100831.72;1707124;82;21109;-70
2021/10/30 22:26:35;;;;;;;36.65;25.62;;;;;;;5.50;85.02;100837.55;1716884;82;21066;-71
2021/10/30 22:29:04;;;;;;;63.15;28.55;;;;;;;5.45;84.99;100823.87;1712625;82;21105;-71
2021/10/30 22:31:31;;;;;;;39.08;26.05;;;;;;;5.38;85.07;100830.64;1715297;81;21596;-70
2021/10/30 22:33:58;;;;;;;;;;;;;;;5.30;85.31;100830.86;1754183;81;21030;-70
2021/10/30 22:36:24;;;;;;;38.23;27.62;;;;;;;5.24;85.39;100825.48;1744932;81;20144;-71
2021/10/30 22:38:51;;;;;;;49.08;29.40;;;;;;;5.17;85.46;100821.96;1751935;81;21002;-71
2021/10/30 22:41:19;;;;;;;44.48;30.05;;;;;;;5.14;85.50;100830.45;1752979;81;21555;-70
2021/10/30 22:43:47;;;;;;;36.50;26.52;;;;;;;5.14;85.59;100826.41;1749668;81;21116;-70
2021/10/30 22:46:13;;;;;;;54.18;32.08;;;;;;;5.12;85.60;100821.75;1752783;81;21006;-71
2021/10/30 22:48:40;;;;;;;46.20;29.57;;;;;;;5.06;85.52;100834.23;1706787;81;21042;-71
2021/10/30 22:51:06;;;;;;;;;;;;;;;5.03;85.55;100835.45;1700983;81;21518;-71
2021/10/30 22:53:33;;;;;;;64.47;29.60;;;;;;;4.98;85.59;100828.52;1715379;82;20153;-71
2021/10/30 22:58:21;;;;;;;49.38;30.82;;;;;;;4.91;86.10;100825.00;1901106;74;23351;-71
2021/10/30 23:00:48;;;;;;;53.65;32.65;;;;;;;4.83;86.10;100832.45;1870767;76;20996;-71
2021/10/30 23:03:14;;;;;;;;;;;;;;;4.84;86.06;100829.56;1825828;79;21083;-70
2021/10/30 23:05:40;;;;;;;53.60;31.23;;;;;;;4.88;86.08;100828.62;1841338;77;20151;-71
2021/10/30 23:08:07;;;;;;;48.75;32.25;;;;;;;4.90;86.23;100823.33;1855436;77;21082;-71
2021/10/30 23:10:34;;;;;;;62.10;31.93;;;;;;;4.96;86.23;100822.48;1845654;77;20951;-71
2021/10/30 23:13:05;;;;;;;68.92;32.15;;;;;;;4.97;86.18;100815.22;1835903;77;21021;-71
2021/10/30 23:15:29;;;;;;;44.45;28.50;;;;;;;4.94;86.31;100812.95;1827809;77;21010;-71
2021/10/30 23:17:55;;;;;;;40.95;28.65;;;;;;;4.96;86.42;100817.09;1825479;77;22000;-70
2021/10/30 23:20:23;;;;;;;52.05;32.80;;;;;;;5.00;86.30;100814.80;1823551;79;21000;-71
2021/10/30 23:22:49;;;;;;;50.52;31.37;;;;;;;5.02;86.12;100819.48;1827854;77;21087;-70
2021/10/30 23:25:16;;;;;;;51.25;31.02;;;;;;;5.03;86.00;100816.27;1834192;77;20923;-71
2021/10/30 23:27:43;;;;;;;41.50;27.32;;;;;;;5.07;86.00;100816.97;1853622;77;21041;-71
2021/10/30 23:30:10;;;;;;;49.73;31.20;;;;;;;5.08;85.94;100819.98;1855769;77;20998;-70
2021/10/30 23:32:37;;;;;;;64.70;31.30;;;;;;;4.97;85.72;100815.22;1853089;77;21011;-71
2021/10/30 23:35:06;;;;;;;59.65;30.72;;;;;;;4.88;85.93;100817.33;1844115;77;20966;-71
2021/10/30 23:37:32;;;;;;;56.98;31.25;;;;;;;4.84;86.20;100821.98;1852094;77;21050;-71
2021/10/30 23:39:59;;;;;;;;;;;;;;;4.81;85.89;100823.24;1858415;77;21007;-70
2021/10/30 23:42:27;;;;;;;36.85;24.12;;;;;;;4.77;85.76;100820.64;1841195;77;20139;-71
2021/10/30 23:44:54;;;;;;;35.45;24.65;;;;;;;4.66;85.67;100823.13;1827534;77;21492;-71
2021/10/30 23:47:21;;;;;;;;;;;;;;;4.53;85.59;100827.17;1857790;77;21035;-71
2021/10/30 23:49:47;;;;;;;37.58;25.65;;;;;;;4.42;85.64;100821.87;1855628;77;20146;-71
2021/10/30 23:52:13;;;;;;;47.43;27.35;;;;;;;4.23;85.93;100823.48;1844928;77;21527;-71
2021/10/30 23:54:40;;;;;;;47.00;27.75;;;;;;;4.18;86.24;100815.17;1832163;77;20969;-71
2021/10/30 23:57:06;;;;;;;39.15;26.82;;;;;;;4.20;86.23;100817.16;1841002;77;21049;-70
2021/10/30 23:59:32;;;;;;;48.05;28.67;;;;;;;4.21;86.15;100813.44;1829619;78;21016;-70
